createdAt,value
2023-05-13T00:00:01.104Z,97.08
2023-05-13T00:02:31.756Z,95.00
2023-05-13T00:05:01.482Z,97.90
2023-05-13T00:07:33.790Z,100.00
2023-05-13T00:10:03.797Z,100.00
2023-05-13T00:12:33.884Z,100.00
2023-05-13T00:15:03.614Z,100.00
2023-05-13T00:17:33.638Z,100.00
2023-05-13T00:20:04.196Z,100.00
2023-05-13T00:22:36.652Z,100.00
2023-05-13T00:25:06.878Z,100.00
2023-05-13T00:27:36.533Z,100.00
2023-05-13T00:30:06.718Z,100.00
2023-05-13T00:32:37.363Z,100.00
2023-05-13T00:35:07.939Z,100.00
2023-05-13T00:37:40.222Z,100.00
2023-05-13T00:40:20.079Z,100.00
2023-05-13T00:42:50.117Z,100.00
2023-05-13T00:45:20.456Z,100.00
2023-05-13T00:47:52.318Z,100.00
2023-05-13T00:50:22.813Z,100.00
2023-05-13T00:52:56.183Z,100.00
2023-05-13T00:55:26.836Z,100.00
2023-05-13T00:57:56.534Z,100.00
2023-05-13T01:00:26.243Z,100.00
2023-05-13T01:03:01.191Z,100.00
2023-05-13T01:05:38.418Z,100.00
2023-05-13T01:08:20.339Z,100.00
2023-05-13T01:10:53.348Z,100.00
2023-05-13T01:13:27.267Z,100.00
2023-05-13T01:16:04.275Z,100.00
2023-05-13T01:18:39.377Z,100.00
2023-05-13T01:21:10.564Z,100.00
2023-05-13T01:23:42.875Z,100.00
2023-05-13T01:26:12.750Z,100.00
2023-05-13T01:28:42.606Z,100.00
2023-05-13T01:31:12.691Z,100.00
2023-05-13T01:33:43.917Z,100.00
2023-05-13T01:36:14.739Z,100.00
2023-05-13T01:38:48.222Z,100.00
2023-05-13T01:41:18.047Z,100.00
2023-05-13T01:43:47.817Z,100.00
2023-05-13T01:46:18.305Z,100.00
2023-05-13T01:48:48.315Z,100.00
2023-05-13T01:51:18.101Z,100.00
2023-05-13T01:53:53.046Z,100.00
2023-05-13T01:56:23.866Z,100.00
2023-05-13T01:58:54.107Z,100.00
2023-05-13T02:01:23.884Z,100.00
2023-05-13T02:03:54.041Z,100.00
2023-05-13T02:06:23.802Z,100.00
2023-05-13T02:08:56.109Z,100.00
2023-05-13T02:11:26.264Z,100.00
2023-05-13T02:13:56.138Z,100.00
2023-05-13T02:16:25.932Z,100.00
2023-05-13T02:18:55.662Z,100.00
2023-05-13T02:21:30.806Z,100.00
2023-05-13T02:24:03.097Z,100.00
2023-05-13T02:26:33.893Z,100.00
2023-05-13T02:29:03.642Z,100.00
2023-05-13T02:31:33.420Z,100.00
2023-05-13T02:34:03.157Z,100.00
2023-05-13T02:36:32.890Z,100.00
2023-05-13T02:39:05.313Z,100.00
2023-05-13T02:41:35.435Z,100.00
2023-05-13T02:44:05.208Z,100.00
2023-05-13T02:46:35.530Z,100.00
2023-05-13T02:49:05.885Z,100.00
2023-05-13T02:51:35.636Z,100.00
2023-05-13T02:54:09.036Z,100.00
2023-05-13T02:56:38.753Z,100.00
2023-05-13T02:59:08.519Z,100.00
2023-05-13T03:01:38.487Z,100.00
2023-05-13T03:04:08.152Z,100.00
2023-05-13T03:06:37.916Z,100.00
2023-05-13T03:09:10.179Z,100.00
2023-05-13T03:11:39.891Z,100.00
2023-05-13T03:14:09.569Z,100.00
2023-05-13T03:16:41.338Z,100.00
2023-05-13T03:19:11.139Z,100.00
2023-05-13T03:21:41.105Z,100.00
2023-05-13T03:24:16.365Z,100.00
2023-05-13T03:26:46.350Z,100.00
2023-05-13T03:29:16.808Z,100.00
2023-05-13T03:31:46.850Z,100.00
2023-05-13T03:34:16.801Z,100.00
2023-05-13T03:36:46.678Z,100.00
2023-05-13T03:39:19.418Z,100.00
2023-05-13T03:41:49.352Z,100.00
2023-05-13T03:44:19.263Z,100.00
2023-05-13T03:46:49.447Z,100.00
2023-05-13T03:49:19.561Z,100.00
2023-05-13T03:51:49.631Z,100.00
2023-05-13T03:54:22.416Z,100.00
2023-05-13T03:56:52.204Z,100.00
2023-05-13T03:59:21.965Z,100.00
2023-05-13T04:01:51.847Z,100.00
2023-05-13T04:04:21.759Z,100.00
2023-05-13T04:06:51.710Z,100.00
2023-05-13T04:09:24.073Z,100.00
2023-05-13T04:11:53.876Z,100.00
2023-05-13T04:14:23.769Z,100.00
2023-05-13T04:16:53.587Z,100.00
2023-05-13T04:19:23.592Z,100.00
2023-05-13T04:21:53.660Z,100.00
2023-05-13T04:24:28.743Z,100.00
2023-05-13T04:27:00.086Z,100.00
2023-05-13T04:29:32.031Z,100.00
2023-05-13T04:32:01.911Z,100.00
2023-05-13T04:34:31.734Z,100.00
2023-05-13T04:37:01.424Z,100.00
2023-05-13T04:39:33.847Z,100.00
2023-05-13T04:42:03.999Z,100.00
2023-05-13T04:44:35.309Z,100.00
2023-05-13T04:47:05.080Z,100.00
2023-05-13T04:49:36.560Z,100.00
2023-05-13T04:52:08.571Z,100.00
2023-05-13T04:54:41.005Z,100.00
2023-05-13T04:57:13.299Z,100.00
2023-05-13T04:59:43.382Z,100.00
2023-05-13T05:02:13.866Z,100.00
2023-05-13T05:04:43.777Z,100.00
2023-05-13T05:07:16.486Z,100.00
2023-05-13T05:09:48.896Z,100.00
2023-05-13T05:12:19.051Z,100.00
2023-05-13T05:14:49.000Z,100.00
2023-05-13T05:17:19.061Z,100.00
2023-05-13T05:19:49.526Z,100.00
2023-05-13T05:22:19.508Z,100.00
2023-05-13T05:24:52.224Z,100.00
2023-05-13T05:27:21.972Z,100.00
2023-05-13T05:29:51.908Z,100.00
2023-05-13T05:32:22.338Z,100.00
2023-05-13T05:34:52.082Z,100.00
2023-05-13T05:37:21.862Z,100.00
2023-05-13T05:39:54.421Z,100.00
2023-05-13T05:42:24.327Z,100.00
2023-05-13T05:44:54.374Z,100.00
2023-05-13T05:47:24.298Z,100.00
2023-05-13T05:49:54.303Z,100.00
2023-05-13T05:52:24.172Z,100.00
2023-05-13T05:54:57.900Z,100.00
2023-05-13T05:57:27.792Z,100.00
2023-05-13T05:59:57.745Z,100.00
2023-05-13T06:02:27.890Z,100.00
2023-05-13T06:04:57.967Z,100.00
2023-05-13T06:07:31.112Z,100.00
2023-05-13T06:10:05.038Z,100.00
2023-05-13T06:12:36.540Z,100.00
2023-05-13T06:15:10.671Z,100.00
2023-05-13T06:17:40.443Z,100.00
2023-05-13T06:20:11.349Z,100.00
2023-05-13T06:22:41.144Z,100.00
2023-05-13T06:25:13.853Z,100.00
2023-05-13T06:27:44.409Z,100.00
2023-05-13T06:30:14.439Z,99.73
2023-05-13T06:33:00.182Z,98.22
2023-05-13T06:35:31.702Z,96.33
2023-05-13T06:38:03.213Z,91.33
2023-05-13T06:40:35.540Z,94.74
2023-05-13T06:43:05.512Z,88.16
2023-05-13T06:45:40.567Z,85.24
2023-05-13T06:48:10.397Z,91.96
2023-05-13T06:50:41.223Z,96.06
2023-05-13T06:53:12.844Z,99.28
2023-05-13T06:55:45.204Z,99.67
2023-05-13T06:58:14.960Z,96.63
2023-05-13T07:00:46.914Z,97.43
2023-05-13T07:03:16.703Z,89.47
2023-05-13T07:05:46.620Z,94.38
2023-05-13T07:08:18.156Z,100.00
2023-05-13T07:10:50.619Z,100.00
2023-05-13T07:13:21.003Z,98.77
2023-05-13T07:15:50.711Z,99.88
2023-05-13T07:18:20.545Z,95.62
2023-05-13T07:20:50.315Z,91.20
2023-05-13T07:23:20.060Z,97.31
2023-05-13T07:25:52.794Z,98.41
2023-05-13T07:28:22.741Z,99.77
2023-05-13T07:30:53.677Z,98.86
2023-05-13T07:33:23.374Z,94.35
2023-05-13T07:35:53.261Z,93.58
2023-05-13T07:38:23.093Z,98.28
2023-05-13T07:40:55.366Z,98.94
2023-05-13T07:43:25.704Z,94.79
2023-05-13T07:45:55.463Z,91.78
2023-05-13T07:48:25.912Z,88.20
2023-05-13T07:50:55.665Z,90.70
2023-05-13T07:53:25.559Z,96.43
2023-05-13T07:55:57.825Z,96.17
2023-05-13T07:58:27.603Z,93.83
2023-05-13T08:00:57.302Z,97.95
2023-05-13T08:03:27.169Z,98.60
2023-05-13T08:05:56.992Z,83.29
2023-05-13T08:08:27.011Z,82.50
2023-05-13T08:10:59.357Z,92.58
2023-05-13T08:13:29.011Z,88.16
2023-05-13T08:15:58.703Z,84.34
2023-05-13T08:18:28.353Z,89.43
2023-05-13T08:20:58.016Z,91.77
2023-05-13T08:23:43.326Z,81.90
2023-05-13T08:26:17.421Z,80.11
2023-05-13T08:28:48.034Z,80.50
2023-05-13T08:31:18.087Z,79.18
2023-05-13T08:33:48.777Z,84.84
2023-05-13T08:36:18.494Z,88.40
2023-05-13T08:38:48.331Z,87.84
2023-05-13T08:41:22.079Z,84.93
2023-05-13T08:43:53.034Z,85.26
2023-05-13T08:46:26.587Z,85.57
2023-05-13T08:48:58.092Z,89.18
2023-05-13T08:51:27.919Z,94.02
2023-05-13T08:53:59.074Z,96.01
2023-05-13T08:56:31.462Z,97.09
2023-05-13T08:59:01.351Z,94.19
2023-05-13T09:01:33.068Z,98.98
2023-05-13T09:04:07.294Z,95.77
2023-05-13T09:06:36.990Z,90.76
2023-05-13T09:09:06.808Z,88.50
2023-05-13T09:11:42.634Z,92.20
2023-05-13T09:14:13.985Z,93.04
2023-05-13T09:16:45.293Z,97.80
2023-05-13T09:19:15.223Z,93.09
2023-05-13T09:21:46.790Z,91.33
2023-05-13T09:24:19.125Z,95.01
2023-05-13T09:26:52.665Z,94.02
2023-05-13T09:29:26.589Z,95.42
2023-05-13T09:31:58.088Z,92.69
2023-05-13T09:34:30.082Z,91.75
2023-05-13T09:37:01.276Z,88.45
2023-05-13T09:39:33.863Z,91.74
2023-05-13T09:42:07.173Z,91.08
2023-05-13T09:44:38.401Z,89.77
2023-05-13T09:47:08.381Z,82.70
2023-05-13T09:49:38.098Z,81.64
2023-05-13T09:52:11.451Z,73.85
2023-05-13T09:54:41.510Z,71.17
2023-05-13T09:57:17.771Z,74.44
2023-05-13T09:59:47.424Z,68.57
2023-05-13T10:02:18.564Z,67.46
2023-05-13T10:04:48.750Z,71.82
2023-05-13T10:07:21.186Z,65.92
2023-05-13T10:09:51.163Z,62.11
2023-05-13T10:12:24.438Z,63.81
2023-05-13T10:14:55.622Z,65.14
2023-05-13T10:17:26.721Z,64.00
2023-05-13T10:19:57.610Z,64.96
2023-05-13T10:22:31.546Z,65.66
2023-05-13T10:25:02.410Z,59.59
2023-05-13T10:27:36.896Z,60.67
2023-05-13T10:30:10.375Z,62.96
2023-05-13T10:32:42.062Z,62.09
2023-05-13T10:35:15.713Z,61.04
2023-05-13T10:38:03.174Z,61.13
2023-05-13T10:40:55.932Z,63.68
2023-05-13T10:43:32.874Z,59.30
2023-05-13T10:46:04.950Z,59.31
2023-05-13T10:48:43.555Z,60.12
2023-05-13T10:51:17.874Z,57.04
2023-05-13T10:53:51.040Z,61.41
2023-05-13T10:56:23.273Z,57.01
2023-05-13T10:59:04.600Z,57.14
2023-05-13T11:01:39.331Z,58.05
2023-05-13T11:04:09.258Z,55.89
2023-05-13T11:06:41.167Z,53.84
2023-05-13T11:09:14.756Z,51.28
2023-05-13T11:11:44.950Z,50.84
2023-05-13T11:14:21.942Z,52.45
2023-05-13T11:16:56.885Z,51.40
2023-05-13T11:19:31.535Z,52.18
2023-05-13T11:22:11.027Z,50.74
2023-05-13T11:24:40.942Z,47.39
2023-05-13T11:27:18.385Z,45.49
2023-05-13T11:29:55.313Z,42.86
2023-05-13T11:32:56.765Z,42.35
2023-05-13T11:35:28.045Z,43.11
2023-05-13T11:38:00.123Z,47.08
2023-05-13T11:40:33.349Z,45.17
2023-05-13T11:43:05.261Z,42.78
2023-05-13T11:45:42.471Z,41.97
2023-05-13T11:48:22.372Z,43.75
2023-05-13T11:50:53.412Z,42.76
2023-05-13T11:53:24.655Z,44.01
2023-05-13T11:55:55.711Z,41.75
2023-05-13T11:58:25.354Z,42.34
2023-05-13T12:00:57.656Z,42.43
2023-05-13T12:03:30.548Z,40.18
2023-05-13T12:06:03.971Z,39.79
2023-05-13T12:08:33.990Z,41.11
2023-05-13T12:11:05.723Z,42.84
2023-05-13T12:13:35.910Z,43.83
2023-05-13T12:16:08.987Z,43.86
2023-05-13T12:18:40.772Z,42.42
2023-05-13T12:21:18.230Z,41.92
2023-05-13T12:23:47.912Z,42.17
2023-05-13T12:26:18.219Z,41.57
2023-05-13T12:28:47.878Z,40.35
2023-05-13T12:31:21.312Z,41.41
2023-05-13T12:33:51.813Z,42.57
2023-05-13T12:36:26.159Z,42.63
2023-05-13T12:39:01.377Z,41.75
2023-05-13T12:41:32.836Z,41.99
2023-05-13T12:44:03.574Z,40.78
2023-05-13T12:46:35.931Z,42.56
2023-05-13T12:49:07.875Z,42.45
2023-05-13T12:51:37.614Z,41.48
2023-05-13T12:54:07.567Z,41.44
2023-05-13T12:56:37.221Z,41.26
2023-05-13T12:59:06.926Z,42.35
2023-05-13T13:01:40.056Z,42.67
2023-05-13T13:04:09.937Z,43.23
2023-05-13T13:06:39.894Z,44.92
2023-05-13T13:09:09.640Z,44.54
2023-05-13T13:11:39.530Z,45.82
2023-05-13T13:14:09.664Z,45.17
2023-05-13T13:16:42.043Z,44.64
2023-05-13T13:19:12.768Z,43.62
2023-05-13T13:21:42.494Z,43.51
2023-05-13T13:24:12.151Z,44.92
2023-05-13T13:26:41.843Z,43.34
2023-05-13T13:29:11.977Z,42.81
2023-05-13T13:31:44.283Z,44.55
2023-05-13T13:34:14.020Z,43.47
2023-05-13T13:36:43.765Z,42.20
2023-05-13T13:39:13.451Z,43.15
2023-05-13T13:41:43.420Z,42.07
2023-05-13T13:44:13.074Z,42.24
2023-05-13T13:46:45.589Z,41.49
2023-05-13T13:49:23.046Z,41.82
2023-05-13T13:51:53.297Z,40.83
2023-05-13T13:54:23.402Z,40.92
2023-05-13T13:56:53.076Z,42.16
2023-05-13T13:59:22.712Z,42.62
2023-05-13T14:01:55.043Z,42.66
2023-05-13T14:04:27.835Z,41.35
2023-05-13T14:06:58.218Z,42.82
2023-05-13T14:09:27.984Z,42.52
2023-05-13T14:11:57.656Z,42.43
2023-05-13T14:14:27.486Z,44.13
2023-05-13T14:16:59.821Z,43.15
2023-05-13T14:19:29.490Z,43.39
2023-05-13T14:21:59.175Z,43.08
2023-05-13T14:24:29.024Z,44.75
2023-05-13T14:26:58.766Z,45.57
2023-05-13T14:29:29.239Z,44.41
2023-05-13T14:32:02.149Z,45.70
2023-05-13T14:34:31.962Z,47.04
2023-05-13T14:37:01.632Z,45.34
2023-05-13T14:39:31.276Z,44.05
2023-05-13T14:42:00.974Z,45.33
2023-05-13T14:44:30.693Z,44.95
2023-05-13T14:47:03.103Z,45.61
2023-05-13T14:49:32.851Z,46.01
2023-05-13T14:52:02.578Z,45.88
2023-05-13T14:54:35.902Z,46.02
2023-05-13T14:57:05.851Z,45.05
2023-05-13T14:59:35.764Z,45.44
2023-05-13T15:02:08.265Z,46.01
2023-05-13T15:04:37.974Z,45.96
2023-05-13T15:07:08.334Z,46.12
2023-05-13T15:09:38.031Z,45.88
2023-05-13T15:12:08.814Z,44.65
2023-05-13T15:14:38.494Z,44.40
2023-05-13T15:17:12.232Z,45.10
2023-05-13T15:19:42.477Z,45.54
2023-05-13T15:22:12.577Z,48.58
2023-05-13T15:24:42.376Z,45.96
2023-05-13T15:27:12.810Z,45.35
2023-05-13T15:29:42.462Z,45.86
2023-05-13T15:32:14.698Z,46.05
2023-05-13T15:34:44.323Z,44.29
2023-05-13T15:37:14.400Z,45.06
2023-05-13T15:39:44.546Z,46.01
2023-05-13T15:42:14.252Z,46.34
2023-05-13T15:44:45.709Z,46.30
2023-05-13T15:47:18.059Z,45.79
2023-05-13T15:49:49.583Z,47.06
2023-05-13T15:52:19.340Z,46.38
2023-05-13T15:54:48.999Z,48.25
2023-05-13T15:57:19.423Z,52.17
2023-05-13T15:59:49.134Z,49.64
2023-05-13T16:02:21.388Z,49.06
2023-05-13T16:04:51.277Z,50.87
2023-05-13T16:07:20.957Z,48.82
2023-05-13T16:09:50.620Z,48.21
2023-05-13T16:12:20.323Z,47.79
2023-05-13T16:14:49.943Z,49.66
2023-05-13T16:17:22.215Z,48.59
2023-05-13T16:19:52.113Z,50.33
2023-05-13T16:22:30.546Z,49.95
2023-05-13T16:25:02.702Z,48.69
2023-05-13T16:27:33.222Z,48.92
2023-05-13T16:30:04.270Z,49.27
2023-05-13T16:32:37.714Z,50.13
2023-05-13T16:35:08.553Z,46.49
2023-05-13T16:37:38.261Z,47.46
2023-05-13T16:40:09.623Z,47.04
2023-05-13T16:42:39.555Z,46.47
2023-05-13T16:45:10.970Z,46.23
2023-05-13T16:47:43.683Z,46.04
2023-05-13T16:50:13.593Z,45.60
2023-05-13T16:52:45.975Z,48.20
2023-05-13T16:55:16.401Z,48.27
2023-05-13T16:57:47.003Z,49.64
2023-05-13T17:00:17.494Z,50.05
2023-05-13T17:02:49.767Z,48.75
2023-05-13T17:05:19.565Z,50.13
2023-05-13T17:07:49.211Z,52.76
2023-05-13T17:10:18.897Z,53.45
2023-05-13T17:12:48.596Z,54.84
2023-05-13T17:15:18.289Z,54.54
2023-05-13T17:17:50.827Z,57.20
2023-05-13T17:20:20.926Z,57.68
2023-05-13T17:22:51.626Z,56.49
2023-05-13T17:25:21.306Z,57.06
2023-05-13T17:27:53.615Z,58.93
2023-05-13T17:30:24.011Z,56.93
2023-05-13T17:32:56.545Z,54.58
2023-05-13T17:35:26.218Z,53.57
2023-05-13T17:37:55.850Z,54.15
2023-05-13T17:40:26.528Z,54.37
2023-05-13T17:42:56.584Z,53.73
2023-05-13T17:45:26.522Z,55.98
2023-05-13T17:47:58.998Z,57.25
2023-05-13T17:50:30.470Z,58.53
2023-05-13T17:53:00.403Z,58.97
2023-05-13T17:55:30.271Z,60.47
2023-05-13T17:58:00.605Z,61.75
2023-05-13T18:00:30.833Z,63.30
2023-05-13T18:03:03.233Z,65.04
2023-05-13T18:05:33.617Z,66.42
2023-05-13T18:08:03.506Z,70.03
2023-05-13T18:10:33.361Z,72.18
2023-05-13T18:13:03.172Z,73.12
2023-05-13T18:15:32.990Z,75.22
2023-05-13T18:18:05.766Z,79.66
2023-05-13T18:20:36.319Z,81.40
2023-05-13T18:23:06.052Z,82.21
2023-05-13T18:25:42.590Z,87.07
2023-05-13T18:28:21.997Z,93.00
2023-05-13T18:30:51.834Z,89.93
2023-05-13T18:33:24.583Z,85.76
2023-05-13T18:35:54.297Z,95.45
2023-05-13T18:38:24.069Z,96.15
2023-05-13T18:40:53.897Z,91.45
2023-05-13T18:43:23.748Z,92.44
2023-05-13T18:45:54.909Z,97.02
2023-05-13T18:48:28.547Z,97.81
2023-05-13T18:50:58.424Z,93.44
2023-05-13T18:53:28.279Z,91.94
2023-05-13T18:55:58.329Z,87.15
2023-05-13T18:58:28.732Z,92.85
2023-05-13T19:00:58.690Z,95.53
2023-05-13T19:03:31.625Z,100.00
2023-05-13T19:06:01.549Z,98.50
2023-05-13T19:08:31.344Z,99.03
2023-05-13T19:11:01.340Z,95.91
2023-05-13T19:13:43.366Z,95.68
2023-05-13T19:16:16.450Z,97.29
2023-05-13T19:18:49.149Z,100.00
2023-05-13T19:21:18.858Z,100.00
2023-05-13T19:23:48.967Z,100.00
2023-05-13T19:26:18.968Z,100.00
2023-05-13T19:28:49.201Z,100.00
2023-05-13T19:31:18.946Z,100.00
2023-05-13T19:33:51.352Z,100.00
2023-05-13T19:36:22.298Z,100.00
2023-05-13T19:38:52.430Z,100.00
2023-05-13T19:41:22.762Z,100.00
2023-05-13T19:43:53.305Z,100.00
2023-05-13T19:46:23.207Z,100.00
2023-05-13T19:48:55.561Z,100.00
2023-05-13T19:51:26.897Z,100.00
2023-05-13T19:53:56.902Z,100.00
2023-05-13T19:56:26.676Z,100.00
2023-05-13T19:58:56.572Z,100.00
2023-05-13T20:01:26.974Z,100.00
2023-05-13T20:03:59.423Z,100.00
2023-05-13T20:06:29.434Z,100.00
2023-05-13T20:08:59.586Z,100.00
2023-05-13T20:11:29.365Z,100.00
2023-05-13T20:13:59.754Z,100.00
2023-05-13T20:16:29.730Z,100.00
2023-05-13T20:19:02.455Z,100.00
2023-05-13T20:21:32.801Z,100.00
2023-05-13T20:24:02.672Z,100.00
2023-05-13T20:26:34.828Z,100.00
2023-05-13T20:29:04.849Z,100.00
2023-05-13T20:31:34.669Z,100.00
2023-05-13T20:34:07.160Z,100.00
2023-05-13T20:36:38.999Z,100.00
2023-05-13T20:39:09.564Z,100.00
2023-05-13T20:41:39.308Z,100.00
2023-05-13T20:44:09.376Z,100.00
2023-05-13T20:46:39.152Z,100.00
2023-05-13T20:49:11.521Z,100.00
2023-05-13T20:51:41.856Z,100.00
2023-05-13T20:54:12.896Z,100.00
2023-05-13T20:56:43.031Z,100.00
2023-05-13T20:59:13.027Z,100.00
2023-05-13T21:01:47.485Z,100.00
2023-05-13T21:04:19.868Z,100.00
2023-05-13T21:06:49.887Z,100.00
2023-05-13T21:09:19.726Z,100.00
2023-05-13T21:11:49.429Z,100.00
2023-05-13T21:14:19.115Z,100.00
2023-05-13T21:16:48.819Z,100.00
2023-05-13T21:19:24.921Z,100.00
2023-05-13T21:21:54.640Z,100.00
2023-05-13T21:24:24.294Z,100.00
2023-05-13T21:26:54.044Z,100.00
2023-05-13T21:29:23.682Z,100.00
2023-05-13T21:31:54.675Z,100.00
2023-05-13T21:34:27.057Z,100.00
2023-05-13T21:36:56.733Z,100.00
2023-05-13T21:39:26.394Z,100.00
2023-05-13T21:41:56.476Z,100.00
2023-05-13T21:44:26.491Z,100.00
2023-05-13T21:46:56.116Z,100.00
2023-05-13T21:49:28.695Z,100.00
2023-05-13T21:51:58.388Z,100.00
2023-05-13T21:54:28.204Z,100.00
2023-05-13T21:56:57.887Z,100.00
2023-05-13T21:59:27.631Z,100.00
2023-05-13T22:01:57.492Z,100.00
2023-05-13T22:04:29.760Z,100.00
2023-05-13T22:06:59.411Z,100.00
2023-05-13T22:09:29.324Z,100.00
2023-05-13T22:11:59.126Z,100.00
2023-05-13T22:14:29.003Z,100.00
2023-05-13T22:17:09.178Z,100.00
2023-05-13T22:19:42.481Z,100.00
2023-05-13T22:22:12.417Z,100.00
2023-05-13T22:24:42.128Z,100.00
2023-05-13T22:27:11.847Z,100.00
2023-05-13T22:29:41.573Z,100.00
2023-05-13T22:32:11.413Z,100.00
2023-05-13T22:34:43.802Z,100.00
2023-05-13T22:37:13.694Z,100.00
2023-05-13T22:39:43.440Z,100.00
2023-05-13T22:42:13.385Z,100.00
2023-05-13T22:44:43.085Z,100.00
2023-05-13T22:47:12.764Z,100.00
2023-05-13T22:49:45.018Z,100.00
2023-05-13T22:52:14.726Z,100.00
2023-05-13T22:54:44.371Z,100.00
2023-05-13T22:57:14.072Z,100.00
2023-05-13T22:59:43.738Z,100.00
2023-05-13T23:02:13.472Z,100.00
2023-05-13T23:04:45.787Z,100.00
2023-05-13T23:07:15.535Z,100.00
2023-05-13T23:09:45.249Z,100.00
2023-05-13T23:12:14.906Z,100.00
2023-05-13T23:14:44.848Z,100.00
2023-05-13T23:17:14.615Z,100.00
2023-05-13T23:19:46.955Z,100.00
2023-05-13T23:22:16.660Z,100.00
2023-05-13T23:24:46.389Z,100.00
2023-05-13T23:27:16.077Z,100.00
2023-05-13T23:29:45.737Z,100.00
2023-05-13T23:32:16.168Z,100.00
2023-05-13T23:34:48.396Z,100.00
2023-05-13T23:37:18.240Z,100.00
2023-05-13T23:39:48.198Z,100.00
2023-05-13T23:42:17.829Z,100.00
2023-05-13T23:44:47.585Z,100.00
2023-05-13T23:47:17.288Z,100.00
2023-05-13T23:49:49.703Z,100.00
2023-05-13T23:52:19.494Z,100.00
2023-05-13T23:54:49.213Z,100.00
2023-05-13T23:57:18.933Z,100.00
2023-05-13T23:59:48.658Z,100.00
